TimeCDT,TemperatureF,Dew PointF,Humidity,Sea Level PressureIn,VisibilityMPH,Wind Direction,Wind SpeedMPH,Gust SpeedMPH,PrecipitationIn,Events,Conditions,WindDirDegrees,DateUTC
12:13 AM,55.4,50.0,82,29.89,10.0,Calm,Calm,-,N/A,,Clear,0,2012-09-04 05:13:00
12:33 AM,55.4,50.0,82,29.89,10.0,ESE,3.5,-,N/A,,Clear,120,2012-09-04 05:33:00
12:52 AM,55.4,50.0,82,29.89,10.0,Calm,Calm,-,N/A,,Clear,0,2012-09-04 05:52:00
1:13 AM,57.2,50.0,77,29.90,10.0,Calm,Calm,-,N/A,,Clear,0,2012-09-04 06:13:00
1:33 AM,55.4,51.8,88,29.90,10.0,Calm,Calm,-,N/A,,Scattered Clouds,0,2012-09-04 06:33:00
1:52 AM,53.6,51.8,94,29.90,10.0,Calm,Calm,-,N/A,,Scattered Clouds,0,2012-09-04 06:52:00
2:13 AM,53.6,48.2,82,29.90,10.0,Calm,Calm,-,N/A,,Clear,0,2012-09-04 07:13:00
2:33 AM,51.8,48.2,88,29.90,10.0,Calm,Calm,-,N/A,,Clear,0,2012-09-04 07:33:00
2:52 AM,53.6,48.2,82,29.90,10.0,Calm,Calm,-,N/A,,Clear,0,2012-09-04 07:52:00
3:13 AM,51.8,48.2,88,29.89,10.0,Calm,Calm,-,N/A,,Clear,0,2012-09-04 08:13:00
3:32 AM,51.8,48.2,88,29.89,10.0,Calm,Calm,-,N/A,,Clear,0,2012-09-04 08:32:00
3:52 AM,51.8,48.2,88,29.89,10.0,Calm,Calm,-,N/A,,Clear,0,2012-09-04 08:52:00
4:13 AM,50.0,46.4,87,29.90,10.0,Calm,Calm,-,N/A,,Scattered Clouds,0,2012-09-04 09:13:00
4:32 AM,51.8,48.2,88,29.90,10.0,Calm,Calm,-,N/A,,Mostly Cloudy,0,2012-09-04 09:32:00
4:53 AM,51.8,48.2,88,29.91,10.0,Calm,Calm,-,N/A,,Mostly Cloudy,0,2012-09-04 09:53:00
5:13 AM,50.0,48.2,94,29.90,10.0,Calm,Calm,-,N/A,,Scattered Clouds,0,2012-09-04 10:13:00
5:32 AM,50.0,46.4,87,29.91,10.0,Calm,Calm,-,N/A,,Clear,0,2012-09-04 10:32:00
5:53 AM,50.0,46.4,87,29.91,10.0,Calm,Calm,-,N/A,,Clear,0,2012-09-04 10:53:00
6:13 AM,48.2,46.4,93,29.90,10.0,Calm,Calm,-,N/A,,Clear,0,2012-09-04 11:13:00
6:32 AM,48.2,46.4,93,29.90,10.0,Calm,Calm,-,N/A,,Clear,0,2012-09-04 11:32:00
6:53 AM,48.2,46.4,93,29.90,10.0,Calm,Calm,-,N/A,,Clear,0,2012-09-04 11:53:00
7:13 AM,48.2,46.4,93,29.90,10.0,Calm,Calm,-,N/A,,Clear,0,2012-09-04 12:13:00
7:32 AM,51.8,48.2,88,29.89,10.0,Calm,Calm,-,N/A,,Clear,0,2012-09-04 12:32:00
7:53 AM,57.2,51.8,82,29.88,10.0,ESE,5.8,-,N/A,,Clear,110,2012-09-04 12:53:00
8:13 AM,60.8,53.6,77,29.88,10.0,Calm,Calm,-,N/A,,Clear,0,2012-09-04 13:13:00
8:32 AM,62.6,53.6,72,29.88,10.0,Calm,Calm,-,N/A,,Clear,0,2012-09-04 13:32:00
8:53 AM,66.2,51.8,60,29.87,10.0,Calm,Calm,-,N/A,,Clear,0,2012-09-04 13:53:00
9:13 AM,71.6,51.8,50,29.87,10.0,SE,3.5,-,N/A,,Clear,130,2012-09-04 14:13:00
9:32 AM,71.6,48.2,43,29.87,10.0,Calm,Calm,-,N/A,,Clear,0,2012-09-04 14:32:00
9:53 AM,71.6,50.0,46,29.87,10.0,Calm,Calm,-,N/A,,Clear,0,2012-09-04 14:53:00
10:13 AM,75.2,48.2,38,29.86,10.0,East,5.8,-,N/A,,Clear,100,2012-09-04 15:13:00
10:32 AM,78.8,46.4,32,29.86,10.0,SE,5.8,-,N/A,,Clear,130,2012-09-04 15:32:00
10:53 AM,78.8,44.6,30,29.85,10.0,SSE,8.1,-,N/A,,Scattered Clouds,160,2012-09-04 15:53:00
11:13 AM,80.6,46.4,30,29.85,10.0,South,9.2,-,N/A,,Mostly Cloudy,170,2012-09-04 16:13:00
11:32 AM,80.6,44.6,28,29.84,10.0,SSE,5.8,-,N/A,,Scattered Clouds,150,2012-09-04 16:32:00
11:53 AM,80.6,44.6,28,29.83,10.0,SE,6.9,-,N/A,,Scattered Clouds,140,2012-09-04 16:53:00
12:13 PM,82.4,44.6,26,29.82,10.0,SSW,8.1,-,N/A,,Scattered Clouds,200,2012-09-04 17:13:00
12:32 PM,82.4,42.8,25,29.81,10.0,SSE,8.1,-,N/A,,Clear,160,2012-09-04 17:32:00
12:53 PM,84.2,42.8,23,29.80,10.0,SSE,11.5,-,N/A,,Scattered Clouds,150,2012-09-04 17:53:00
1:13 PM,84.2,44.6,25,29.80,10.0,SSW,9.2,-,N/A,,Scattered Clouds,210,2012-09-04 18:13:00
1:32 PM,84.2,46.4,27,29.79,10.0,SSW,11.5,18.4,N/A,,Scattered Clouds,200,2012-09-04 18:32:00
1:53 PM,84.2,44.6,25,29.78,10.0,SSW,9.2,-,N/A,,Scattered Clouds,200,2012-09-04 18:53:00
2:13 PM,84.2,44.6,25,29.77,10.0,SSW,11.5,16.1,N/A,,Scattered Clouds,200,2012-09-04 19:13:00
2:32 PM,82.4,44.6,26,29.76,10.0,South,6.9,16.1,N/A,,Clear,190,2012-09-04 19:32:00
2:53 PM,84.2,42.8,23,29.75,10.0,South,6.9,18.4,N/A,,Clear,170,2012-09-04 19:53:00
3:13 PM,84.2,44.6,25,29.74,10.0,South,5.8,-,N/A,,Clear,190,2012-09-04 20:13:00
3:32 PM,82.4,46.4,28,29.73,10.0,SSE,9.2,18.4,N/A,,Scattered Clouds,160,2012-09-04 20:32:00
3:53 PM,84.2,48.2,29,29.72,10.0,SSE,10.4,16.1,N/A,,Clear,160,2012-09-04 20:53:00
4:13 PM,82.4,50.0,32,29.71,10.0,SSE,4.6,-,N/A,,Clear,150,2012-09-04 21:13:00
4:32 PM,80.6,53.6,39,29.68,10.0,South,4.6,-,N/A,,Scattered Clouds,180,2012-09-04 21:32:00
4:50 PM,62.6,57.2,82,29.74,1.8,WNW,39.1,51.8,N/A,Rain-Thunderstorm,Heavy Thunderstorms and Rain,300,2012-09-04 21:50:00
5:13 PM,60.8,57.2,88,29.78,7.0,Calm,Calm,-,0.12,Rain-Thunderstorm,Heavy Thunderstorms and Rain,0,2012-09-04 22:13:00
5:32 PM,60.8,59.0,94,29.77,10.0,SSE,5.8,-,0.16,Rain-Thunderstorm,Light Thunderstorms and Rain,160,2012-09-04 22:32:00
5:53 PM,62.6,60.8,94,29.75,10.0,East,5.8,-,0.16,,Overcast,80,2012-09-04 22:53:00
6:13 PM,62.6,60.8,94,29.75,10.0,ESE,3.5,-,N/A,,Overcast,120,2012-09-04 23:13:00
6:32 PM,62.6,60.8,94,29.75,10.0,South,3.5,-,N/A,,Mostly Cloudy,170,2012-09-04 23:32:00
6:53 PM,62.6,60.8,94,29.75,10.0,Calm,Calm,-,N/A,,Scattered Clouds,0,2012-09-04 23:53:00
7:13 PM,62.6,60.8,94,29.75,10.0,South,3.5,-,N/A,,Scattered Clouds,180,2012-09-05 00:13:00
7:32 PM,62.6,60.8,94,29.75,10.0,South,3.5,-,N/A,,Clear,180,2012-09-05 00:32:00
7:53 PM,60.8,59.0,94,29.75,7.0,Calm,Calm,-,N/A,,Clear,0,2012-09-05 00:53:00
8:12 PM,60.8,59.0,94,29.75,5.0,Calm,Calm,-,N/A,,Clear,0,2012-09-05 01:12:00
8:32 PM,59.0,57.2,94,29.76,5.0,Calm,Calm,-,N/A,,Clear,0,2012-09-05 01:32:00
8:53 PM,60.8,59.0,94,29.76,7.0,Calm,Calm,-,N/A,,Clear,0,2012-09-05 01:53:00
9:12 PM,57.2,55.4,94,29.76,2.5,Calm,Calm,-,N/A,,Clear,0,2012-09-05 02:12:00
9:33 PM,57.2,55.4,94,29.75,3.0,Calm,Calm,-,N/A,,Scattered Clouds,0,2012-09-05 02:33:00
9:53 PM,55.4,53.6,94,29.75,2.5,Calm,Calm,-,N/A,,Mostly Cloudy,0,2012-09-05 02:53:00
10:12 PM,53.6,53.6,100,29.74,2.0,Calm,Calm,-,N/A,,Mostly Cloudy,0,2012-09-05 03:12:00
10:33 PM,53.6,53.6,100,29.74,10.0,Calm,Calm,-,N/A,,Scattered Clouds,0,2012-09-05 03:33:00
10:53 PM,53.6,51.8,94,29.74,0.8,Calm,Calm,-,N/A,,Overcast,0,2012-09-05 03:53:00
11:13 PM,53.6,53.6,100,29.74,0.8,Calm,Calm,-,N/A,,Overcast,0,2012-09-05 04:13:00
11:33 PM,51.8,51.8,100,29.75,1.0,SSW,4.6,-,N/A,,Overcast,210,2012-09-05 04:33:00
11:52 PM,55.4,55.4,100,29.76,4.0,SSW,3.5,-,N/A,,Scattered Clouds,210,2012-09-05 04:52:00